sensor_id;sensor_type;location;lat;lon;timestamp;pressure;altitude;pressure_sealevel;temperature;humidity
22647;BME280;11490;42.726;23.268;2023-06-26T00:01:27;95036.31;;;21.14;100.00
22647;BME280;11490;42.726;23.268;2023-06-26T00:03:55;95033.13;;;21.12;100.00
22647;BME280;11490;42.726;23.268;2023-06-26T00:06:20;95036.44;;;21.09;100.00
22647;BME280;11490;42.726;23.268;2023-06-26T00:08:50;95017.88;;;21.03;100.00
22647;BME280;11490;42.726;23.268;2023-06-26T00:11:15;95026.69;;;21.08;100.00
22647;BME280;11490;42.726;23.268;2023-06-26T00:13:40;95032.09;;;21.08;100.00
22647;BME280;11490;42.726;23.268;2023-06-26T00:16:07;95038.56;;;20.99;100.00
22647;BME280;11490;42.726;23.268;2023-06-26T00:18:32;95017.56;;;20.82;100.00
22647;BME280;11490;42.726;23.268;2023-06-26T00:20:57;95011.06;;;20.69;100.00
22647;BME280;11490;42.726;23.268;2023-06-26T00:23:23;95010.72;;;20.85;100.00
22647;BME280;11490;42.726;23.268;2023-06-26T00:25:48;95001.09;;;20.79;100.00
22647;BME280;11490;42.726;23.268;2023-06-26T00:28:14;95030.78;;;20.97;100.00
22647;BME280;11490;42.726;23.268;2023-06-26T00:30:39;95005.50;;;20.88;100.00
22647;BME280;11490;42.726;23.268;2023-06-26T00:33:04;95014.53;;;20.84;100.00
22647;BME280;11490;42.726;23.268;2023-06-26T00:35:30;95016.94;;;21.07;100.00
22647;BME280;11490;42.726;23.268;2023-06-26T00:37:55;95016.56;;;21.00;100.00
22647;BME280;11490;42.726;23.268;2023-06-26T00:40:21;94987.78;;;20.91;100.00
22647;BME280;11490;42.726;23.268;2023-06-26T00:42:46;94994.88;;;20.78;100.00
22647;BME280;11490;42.726;23.268;2023-06-26T00:45:12;94997.47;;;20.83;100.00
22647;BME280;11490;42.726;23.268;2023-06-26T00:47:37;95012.88;;;20.96;100.00
22647;BME280;11490;42.726;23.268;2023-06-26T00:50:04;95005.84;;;20.95;100.00
22647;BME280;11490;42.726;23.268;2023-06-26T00:52:33;95014.59;;;20.92;100.00
22647;BME280;11490;42.726;23.268;2023-06-26T00:54:58;95009.25;;;21.01;100.00
22647;BME280;11490;42.726;23.268;2023-06-26T00:57:24;94981.81;;;20.80;100.00
22647;BME280;11490;42.726;23.268;2023-06-26T00:59:50;95006.09;;;20.85;100.00
22647;BME280;11490;42.726;23.268;2023-06-26T01:02:15;94992.59;;;20.94;100.00
22647;BME280;11490;42.726;23.268;2023-06-26T01:04:52;94999.41;;;21.05;100.00
22647;BME280;11490;42.726;23.268;2023-06-26T01:07:18;94979.34;;;20.92;100.00
22647;BME280;11490;42.726;23.268;2023-06-26T01:09:47;94995.88;;;21.04;100.00
22647;BME280;11490;42.726;23.268;2023-06-26T01:12:13;94975.78;;;20.83;100.00
22647;BME280;11490;42.726;23.268;2023-06-26T01:14:39;94986.75;;;20.78;100.00
22647;BME280;11490;42.726;23.268;2023-06-26T01:17:05;94972.31;;;20.69;100.00
22647;BME280;11490;42.726;23.268;2023-06-26T01:19:31;94972.81;;;20.71;100.00
22647;BME280;11490;42.726;23.268;2023-06-26T01:22:23;94997.09;;;20.76;100.00
22647;BME280;11490;42.726;23.268;2023-06-26T01:25:01;94971.22;;;20.70;100.00
22647;BME280;11490;42.726;23.268;2023-06-26T01:27:30;94976.13;;;20.68;100.00
22647;BME280;11490;42.726;23.268;2023-06-26T01:29:59;94966.41;;;20.67;100.00
22647;BME280;11490;42.726;23.268;2023-06-26T01:32:26;94956.41;;;20.54;100.00
22647;BME280;11490;42.726;23.268;2023-06-26T01:34:52;94956.41;;;20.54;100.00
22647;BME280;11490;42.726;23.268;2023-06-26T01:37:17;94962.56;;;20.68;100.00
22647;BME280;11490;42.726;23.268;2023-06-26T01:39:42;94974.94;;;20.74;100.00
22647;BME280;11490;42.726;23.268;2023-06-26T01:42:08;94956.19;;;20.64;100.00
22647;BME280;11490;42.726;23.268;2023-06-26T01:44:37;94965.56;;;20.80;100.00
22647;BME280;11490;42.726;23.268;2023-06-26T01:47:07;94972.94;;;20.66;100.00
22647;BME280;11490;42.726;23.268;2023-06-26T01:50:11;94984.78;;;20.92;100.00
22647;BME280;11490;42.726;23.268;2023-06-26T01:55:35;94976.16;;;20.90;100.00
22647;BME280;11490;42.726;23.268;2023-06-26T01:58:05;94947.69;;;20.57;100.00
22647;BME280;11490;42.726;23.268;2023-06-26T02:00:31;94954.81;;;20.53;100.00
22647;BME280;11490;42.726;23.268;2023-06-26T02:02:57;94955.94;;;20.52;100.00
22647;BME280;11490;42.726;23.268;2023-06-26T02:05:23;94932.38;;;20.39;100.00
22647;BME280;11490;42.726;23.268;2023-06-26T02:07:49;94936.19;;;20.24;100.00
22647;BME280;11490;42.726;23.268;2023-06-26T02:10:14;94972.50;;;20.36;100.00
22647;BME280;11490;42.726;23.268;2023-06-26T02:12:40;94930.19;;;20.13;100.00
22647;BME280;11490;42.726;23.268;2023-06-26T02:15:06;94969.09;;;20.31;100.00
22647;BME280;11490;42.726;23.268;2023-06-26T02:17:32;94958.66;;;20.24;100.00
22647;BME280;11490;42.726;23.268;2023-06-26T02:19:57;94944.84;;;20.26;100.00
22647;BME280;11490;42.726;23.268;2023-06-26T02:22:23;94957.56;;;20.25;100.00
22647;BME280;11490;42.726;23.268;2023-06-26T02:24:48;94964.59;;;20.26;100.00
22647;BME280;11490;42.726;23.268;2023-06-26T02:27:14;94947.88;;;20.11;100.00
22647;BME280;11490;42.726;23.268;2023-06-26T02:29:40;94939.34;;;20.17;100.00
22647;BME280;11490;42.726;23.268;2023-06-26T02:32:07;94950.28;;;20.12;100.00
22647;BME280;11490;42.726;23.268;2023-06-26T02:34:33;94969.72;;;20.28;100.00
22647;BME280;11490;42.726;23.268;2023-06-26T02:36:59;94968.69;;;20.24;100.00
22647;BME280;11490;42.726;23.268;2023-06-26T02:39:25;94967.91;;;20.23;100.00
22647;BME280;11490;42.726;23.268;2023-06-26T02:41:51;94964.41;;;20.09;100.00
22647;BME280;11490;42.726;23.268;2023-06-26T02:44:17;94955.88;;;20.16;100.00
22647;BME280;11490;42.726;23.268;2023-06-26T02:46:42;94956.09;;;20.19;100.00
22647;BME280;11490;42.726;23.268;2023-06-26T02:49:08;94954.84;;;20.25;100.00
22647;BME280;11490;42.726;23.268;2023-06-26T02:51:33;94985.34;;;20.31;100.00
22647;BME280;11490;42.726;23.268;2023-06-26T02:53:59;94957.06;;;20.23;100.00
22647;BME280;11490;42.726;23.268;2023-06-26T02:56:25;94958.88;;;20.28;100.00
22647;BME280;11490;42.726;23.268;2023-06-26T02:58:54;94964.00;;;20.16;100.00
22647;BME280;11490;42.726;23.268;2023-06-26T03:01:19;94952.75;;;20.22;100.00
22647;BME280;11490;42.726;23.268;2023-06-26T03:03:47;94957.06;;;20.23;100.00
22647;BME280;11490;42.726;23.268;2023-06-26T03:06:13;94979.13;;;20.30;100.00
22647;BME280;11490;42.726;23.268;2023-06-26T03:08:39;94963.91;;;20.21;100.00
22647;BME280;11490;42.726;23.268;2023-06-26T03:11:06;94976.91;;;20.32;100.00
22647;BME280;11490;42.726;23.268;2023-06-26T03:13:33;94963.59;;;20.22;100.00
22647;BME280;11490;42.726;23.268;2023-06-26T03:15:59;94971.50;;;20.32;100.00
22647;BME280;11490;42.726;23.268;2023-06-26T03:18:25;94968.69;;;20.24;100.00
22647;BME280;11490;42.726;23.268;2023-06-26T03:20:50;94962.91;;;20.17;100.00
22647;BME280;11490;42.726;23.268;2023-06-26T03:23:16;94948.16;;;20.09;100.00
22647;BME280;11490;42.726;23.268;2023-06-26T03:25:41;94965.63;;;20.03;100.00
22647;BME280;11490;42.726;23.268;2023-06-26T03:28:07;94953.69;;;19.90;100.00
22647;BME280;11490;42.726;23.268;2023-06-26T03:30:32;94973.38;;;19.96;100.00
22647;BME280;11490;42.726;23.268;2023-06-26T03:32:57;94960.41;;;19.93;100.00
22647;BME280;11490;42.726;23.268;2023-06-26T03:35:24;94975.69;;;19.89;100.00
22647;BME280;11490;42.726;23.268;2023-06-26T03:37:50;94957.94;;;19.69;100.00
22647;BME280;11490;42.726;23.268;2023-06-26T03:40:15;94986.50;;;19.89;100.00
22647;BME280;11490;42.726;23.268;2023-06-26T03:42:42;94976.66;;;19.93;100.00
22647;BME280;11490;42.726;23.268;2023-06-26T03:45:07;94971.53;;;19.91;100.00
22647;BME280;11490;42.726;23.268;2023-06-26T03:47:33;94973.56;;;19.86;100.00
22647;BME280;11490;42.726;23.268;2023-06-26T03:49:58;94959.22;;;19.72;100.00
22647;BME280;11490;42.726;23.268;2023-06-26T03:52:24;94969.94;;;19.90;100.00
22647;BME280;11490;42.726;23.268;2023-06-26T03:54:49;94972.56;;;19.95;100.00
22647;BME280;11490;42.726;23.268;2023-06-26T03:57:15;94957.13;;;19.96;100.00
22647;BME280;11490;42.726;23.268;2023-06-26T03:59:40;94974.16;;;20.10;100.00
22647;BME280;11490;42.726;23.268;2023-06-26T04:02:06;94959.53;;;19.97;100.00
22647;BME280;11490;42.726;23.268;2023-06-26T04:04:31;94963.25;;;19.88;100.00
22647;BME280;11490;42.726;23.268;2023-06-26T04:06:56;94982.88;;;20.07;100.00
22647;BME280;11490;42.726;23.268;2023-06-26T04:09:24;94952.31;;;19.93;100.00
22647;BME280;11490;42.726;23.268;2023-06-26T04:11:49;94963.81;;;19.98;100.00
22647;BME280;11490;42.726;23.268;2023-06-26T04:14:15;94958.00;;;20.05;100.00
22647;BME280;11490;42.726;23.268;2023-06-26T04:16:40;94973.63;;;20.08;100.00
22647;BME280;11490;42.726;23.268;2023-06-26T04:19:06;94976.81;;;20.38;100.00
22647;BME280;11490;42.726;23.268;2023-06-26T04:21:31;94968.09;;;20.41;100.00
22647;BME280;11490;42.726;23.268;2023-06-26T04:23:56;94982.16;;;20.43;100.00
22647;BME280;11490;42.726;23.268;2023-06-26T04:26:22;94985.75;;;20.52;100.00
22647;BME280;11490;42.726;23.268;2023-06-26T04:28:47;94986.47;;;20.44;100.00
22647;BME280;11490;42.726;23.268;2023-06-26T04:31:13;94978.09;;;20.54;100.00
22647;BME280;11490;42.726;23.268;2023-06-26T04:33:38;94951.84;;;20.41;100.00
22647;BME280;11490;42.726;23.268;2023-06-26T04:36:05;94965.84;;;20.56;100.00
22647;BME280;11490;42.726;23.268;2023-06-26T04:38:34;94970.91;;;20.71;100.00
22647;BME280;11490;42.726;23.268;2023-06-26T04:41:00;94987.09;;;20.63;100.00
22647;BME280;11490;42.726;23.268;2023-06-26T04:43:26;94996.47;;;20.79;100.00
22647;BME280;11490;42.726;23.268;2023-06-26T04:45:51;94989.81;;;20.85;100.00
22647;BME280;11490;42.726;23.268;2023-06-26T04:48:17;94982.94;;;20.79;100.00
22647;BME280;11490;42.726;23.268;2023-06-26T04:50:45;95010.03;;;21.01;100.00
22647;BME280;11490;42.726;23.268;2023-06-26T04:53:18;94991.19;;;20.96;100.00
22647;BME280;11490;42.726;23.268;2023-06-26T04:55:44;94984.97;;;20.96;100.00
22647;BME280;11490;42.726;23.268;2023-06-26T04:58:09;94988.22;;;20.84;100.00
22647;BME280;11490;42.726;23.268;2023-06-26T05:00:34;94995.25;;;20.85;100.00
22647;BME280;11490;42.726;23.268;2023-06-26T05:03:01;95005.00;;;21.08;100.00
22647;BME280;11490;42.726;23.268;2023-06-26T05:05:27;95006.00;;;21.12;100.00
22647;BME280;11490;42.726;23.268;2023-06-26T05:07:56;94994.03;;;21.13;100.00
22647;BME280;11490;42.726;23.268;2023-06-26T05:10:22;95013.88;;;21.23;100.00
22647;BME280;11490;42.726;23.268;2023-06-26T05:12:48;94994.28;;;21.26;100.00
22647;BME280;11490;42.726;23.268;2023-06-26T05:15:13;94999.81;;;21.43;100.00
22647;BME280;11490;42.726;23.268;2023-06-26T05:17:39;94995.66;;;21.37;100.00
22647;BME280;11490;42.726;23.268;2023-06-26T05:20:04;95010.00;;;21.37;100.00
22647;BME280;11490;42.726;23.268;2023-06-26T05:22:32;95015.75;;;21.36;100.00
22647;BME280;11490;42.726;23.268;2023-06-26T05:24:58;95010.50;;;21.39;100.00
22647;BME280;11490;42.726;23.268;2023-06-26T05:27:26;95011.38;;;21.57;100.00
22647;BME280;11490;42.726;23.268;2023-06-26T05:29:51;95013.50;;;21.38;100.00
22647;BME280;11490;42.726;23.268;2023-06-26T05:32:17;95028.56;;;21.44;100.00
22647;BME280;11490;42.726;23.268;2023-06-26T05:34:46;95017.59;;;21.27;100.00
22647;BME280;11490;42.726;23.268;2023-06-26T05:37:14;95028.16;;;21.14;100.00
22647;BME280;11490;42.726;23.268;2023-06-26T05:39:44;95033.72;;;21.09;100.00
22647;BME280;11490;42.726;23.268;2023-06-26T05:42:10;95024.88;;;21.18;100.00
22647;BME280;11490;42.726;23.268;2023-06-26T05:44:36;95027.81;;;21.30;100.00
22647;BME280;11490;42.726;23.268;2023-06-26T05:47:02;95011.28;;;21.40;100.00
22647;BME280;11490;42.726;23.268;2023-06-26T05:49:27;95010.03;;;21.46;100.00
22647;BME280;11490;42.726;23.268;2023-06-26T05:51:53;95003.06;;;21.54;100.00
22647;BME280;11490;42.726;23.268;2023-06-26T05:54:18;95010.59;;;21.57;100.00
22647;BME280;11490;42.726;23.268;2023-06-26T05:56:45;95013.66;;;21.64;100.00
22647;BME280;11490;42.726;23.268;2023-06-26T05:59:11;95028.38;;;21.71;100.00
22647;BME280;11490;42.726;23.268;2023-06-26T06:01:37;95028.78;;;21.87;100.00
22647;BME280;11490;42.726;23.268;2023-06-26T06:04:02;95035.78;;;21.79;100.00
22647;BME280;11490;42.726;23.268;2023-06-26T06:06:27;95025.06;;;21.74;100.00
22647;BME280;11490;42.726;23.268;2023-06-26T06:08:54;95005.91;;;21.79;100.00
22647;BME280;11490;42.726;23.268;2023-06-26T06:11:20;95027.09;;;22.00;100.00
22647;BME280;11490;42.726;23.268;2023-06-26T06:13:45;95032.81;;;22.46;100.00
22647;BME280;11490;42.726;23.268;2023-06-26T06:16:11;95017.22;;;22.60;99.46
22647;BME280;11490;42.726;23.268;2023-06-26T06:18:36;95036.78;;;22.97;97.08
22647;BME280;11490;42.726;23.268;2023-06-26T06:21:01;95033.88;;;23.02;96.79
22647;BME280;11490;42.726;23.268;2023-06-26T06:23:27;95031.97;;;23.11;94.66
22647;BME280;11490;42.726;23.268;2023-06-26T06:25:52;95037.09;;;23.21;95.79
22647;BME280;11490;42.726;23.268;2023-06-26T06:28:18;95033.38;;;23.34;93.36
22647;BME280;11490;42.726;23.268;2023-06-26T06:30:44;94999.63;;;23.10;92.54
22647;BME280;11490;42.726;23.268;2023-06-26T06:33:13;95012.59;;;23.13;92.85
22647;BME280;11490;42.726;23.268;2023-06-26T06:35:38;95007.97;;;23.13;91.92
22647;BME280;11490;42.726;23.268;2023-06-26T06:38:04;95003.78;;;23.24;93.78
22647;BME280;11490;42.726;23.268;2023-06-26T06:40:30;95020.72;;;23.38;91.67
22647;BME280;11490;42.726;23.268;2023-06-26T06:42:55;95026.03;;;23.52;89.46
22647;BME280;11490;42.726;23.268;2023-06-26T06:45:20;95021.53;;;23.39;90.76
22647;BME280;11490;42.726;23.268;2023-06-26T06:47:49;95008.88;;;23.34;90.38
22647;BME280;11490;42.726;23.268;2023-06-26T06:50:14;95035.41;;;23.72;89.52
22647;BME280;11490;42.726;23.268;2023-06-26T06:52:42;95003.06;;;23.62;89.68
22647;BME280;11490;42.726;23.268;2023-06-26T06:55:08;95010.59;;;23.73;87.12
22647;BME280;11490;42.726;23.268;2023-06-26T06:57:38;95007.53;;;23.75;87.39
22647;BME280;11490;42.726;23.268;2023-06-26T07:00:11;95001.00;;;23.67;86.31
22647;BME280;11490;42.726;23.268;2023-06-26T07:02:45;95008.97;;;23.81;87.20
22647;BME280;11490;42.726;23.268;2023-06-26T07:05:11;95028.56;;;24.12;88.20
22647;BME280;11490;42.726;23.268;2023-06-26T07:07:37;94998.44;;;24.00;87.52
22647;BME280;11490;42.726;23.268;2023-06-26T07:10:08;95029.25;;;24.39;85.80
22647;BME280;11490;42.726;23.268;2023-06-26T07:12:34;95016.28;;;24.36;85.63
22647;BME280;11490;42.726;23.268;2023-06-26T07:15:01;94995.66;;;24.47;82.80
22647;BME280;11490;42.726;23.268;2023-06-26T07:17:26;95025.78;;;24.80;82.75
22647;BME280;11490;42.726;23.268;2023-06-26T07:19:52;95010.94;;;24.69;82.75
22647;BME280;11490;42.726;23.268;2023-06-26T07:22:17;95016.47;;;24.81;81.03
22647;BME280;11490;42.726;23.268;2023-06-26T07:24:46;95021.03;;;24.98;82.85
22647;BME280;11490;42.726;23.268;2023-06-26T07:27:11;94995.38;;;24.69;84.43
22647;BME280;11490;42.726;23.268;2023-06-26T07:29:37;95004.91;;;25.05;83.75
22647;BME280;11490;42.726;23.268;2023-06-26T07:32:02;95006.25;;;24.99;83.74
22647;BME280;11490;42.726;23.268;2023-06-26T07:34:28;95003.19;;;25.00;80.14
22647;BME280;11490;42.726;23.268;2023-06-26T07:36:53;95002.13;;;24.92;82.24
22647;BME280;11490;42.726;23.268;2023-06-26T07:39:18;95013.69;;;25.10;82.12
22647;BME280;11490;42.726;23.268;2023-06-26T07:41:44;95004.16;;;25.49;82.47
22647;BME280;11490;42.726;23.268;2023-06-26T07:44:09;95001.41;;;25.37;78.86
22647;BME280;11490;42.726;23.268;2023-06-26T07:46:37;95024.22;;;25.53;77.04
22647;BME280;11490;42.726;23.268;2023-06-26T07:49:06;95030.44;;;25.62;81.04
22647;BME280;11490;42.726;23.268;2023-06-26T07:51:34;95022.56;;;25.40;80.02
22647;BME280;11490;42.726;23.268;2023-06-26T07:54:00;95017.81;;;25.49;79.87
22647;BME280;11490;42.726;23.268;2023-06-26T07:56:26;95001.28;;;25.34;80.43
22647;BME280;11490;42.726;23.268;2023-06-26T07:58:51;95024.56;;;25.52;81.06
22647;BME280;11490;42.726;23.268;2023-06-26T08:01:20;95006.47;;;25.47;79.79
22647;BME280;11490;42.726;23.268;2023-06-26T08:03:46;95028.16;;;25.64;78.48
22647;BME280;11490;42.726;23.268;2023-06-26T08:06:11;95026.50;;;25.84;77.56
22647;BME280;11490;42.726;23.268;2023-06-26T08:08:36;95005.78;;;25.50;78.88
22647;BME280;11490;42.726;23.268;2023-06-26T08:11:08;95024.91;;;25.95;78.28
22647;BME280;11490;42.726;23.268;2023-06-26T08:13:34;95005.84;;;25.62;74.33
22647;BME280;11490;42.726;23.268;2023-06-26T08:15:59;95007.94;;;25.90;78.65
22647;BME280;11490;42.726;23.268;2023-06-26T08:18:24;95028.69;;;26.03;75.94
22647;BME280;11490;42.726;23.268;2023-06-26T08:20:50;95027.06;;;25.90;75.92
22647;BME280;11490;42.726;23.268;2023-06-26T08:23:18;95001.34;;;25.91;76.13
22647;BME280;11490;42.726;23.268;2023-06-26T08:25:44;95011.13;;;26.04;75.19
22647;BME280;11490;42.726;23.268;2023-06-26T08:28:09;95015.63;;;26.45;76.83
22647;BME280;11490;42.726;23.268;2023-06-26T08:30:34;95001.38;;;26.27;73.81
22647;BME280;11490;42.726;23.268;2023-06-26T08:33:02;95043.66;;;26.54;73.39
22647;BME280;11490;42.726;23.268;2023-06-26T08:35:30;95024.28;;;26.23;70.44
22647;BME280;11490;42.726;23.268;2023-06-26T08:37:56;95040.75;;;26.02;74.93
22647;BME280;11490;42.726;23.268;2023-06-26T08:40:21;95024.34;;;25.90;74.76
22647;BME280;11490;42.726;23.268;2023-06-26T08:42:47;95022.91;;;25.72;75.35
22647;BME280;11490;42.726;23.268;2023-06-26T08:45:13;95039.22;;;25.68;72.65
22647;BME280;11490;42.726;23.268;2023-06-26T08:47:47;95027.69;;;25.42;75.65
22647;BME280;11490;42.726;23.268;2023-06-26T08:50:17;95011.47;;;25.57;75.93
22647;BME280;11490;42.726;23.268;2023-06-26T08:55:41;95025.91;;;25.46;74.55
22647;BME280;11490;42.726;23.268;2023-06-26T08:58:09;94995.63;;;25.18;79.84
22647;BME280;11490;42.726;23.268;2023-06-26T09:00:35;95000.47;;;25.00;79.46
22647;BME280;11490;42.726;23.268;2023-06-26T09:03:06;95008.75;;;25.57;76.49
22647;BME280;11490;42.726;23.268;2023-06-26T09:05:32;95010.38;;;25.58;74.99
22647;BME280;11490;42.726;23.268;2023-06-26T09:08:01;95006.63;;;25.63;76.29
22647;BME280;11490;42.726;23.268;2023-06-26T09:10:27;94991.69;;;25.27;76.79
22647;BME280;11490;42.726;23.268;2023-06-26T09:12:56;95025.22;;;25.70;75.44
22647;BME280;11490;42.726;23.268;2023-06-26T09:15:26;94993.09;;;25.34;74.15
22647;BME280;11490;42.726;23.268;2023-06-26T09:17:56;95017.22;;;25.64;74.80
22647;BME280;11490;42.726;23.268;2023-06-26T09:20:22;94979.09;;;25.68;77.32
22647;BME280;11490;42.726;23.268;2023-06-26T09:22:48;95011.72;;;26.10;76.16
22647;BME280;11490;42.726;23.268;2023-06-26T09:25:13;95009.22;;;26.04;74.78
22647;BME280;11490;42.726;23.268;2023-06-26T09:27:39;95023.50;;;26.34;74.40
22647;BME280;11490;42.726;23.268;2023-06-26T09:30:08;95008.06;;;25.93;73.39
22647;BME280;11490;42.726;23.268;2023-06-26T09:32:35;94989.72;;;25.82;71.77
22647;BME280;11490;42.726;23.268;2023-06-26T09:35:03;95007.16;;;25.56;72.77
22647;BME280;11490;42.726;23.268;2023-06-26T09:37:29;95009.44;;;25.54;74.15
22647;BME280;11490;42.726;23.268;2023-06-26T09:39:55;95007.09;;;25.65;70.47
22647;BME280;11490;42.726;23.268;2023-06-26T09:42:20;95005.47;;;26.09;72.60
22647;BME280;11490;42.726;23.268;2023-06-26T09:44:47;95000.22;;;26.40;69.35
22647;BME280;11490;42.726;23.268;2023-06-26T09:47:16;94988.81;;;26.02;68.71
22647;BME280;11490;42.726;23.268;2023-06-26T09:49:42;95014.91;;;26.12;71.21
22647;BME280;11490;42.726;23.268;2023-06-26T09:52:14;95003.22;;;26.48;69.88
22647;BME280;11490;42.726;23.268;2023-06-26T09:54:40;95007.38;;;26.81;66.64
22647;BME280;11490;42.726;23.268;2023-06-26T09:57:13;95014.34;;;26.91;67.69
22647;BME280;11490;42.726;23.268;2023-06-26T09:59:41;94996.34;;;26.66;65.96
22647;BME280;11490;42.726;23.268;2023-06-26T10:02:07;95013.84;;;26.89;65.71
22647;BME280;11490;42.726;23.268;2023-06-26T10:04:33;95030.41;;;26.80;68.39
22647;BME280;11490;42.726;23.268;2023-06-26T10:07:02;95025.53;;;26.62;67.01
22647;BME280;11490;42.726;23.268;2023-06-26T10:09:30;95007.28;;;26.17;67.96
22647;BME280;11490;42.726;23.268;2023-06-26T10:12:07;95027.13;;;26.26;67.09
22647;BME280;11490;42.726;23.268;2023-06-26T10:14:41;95020.97;;;26.41;69.90
22647;BME280;11490;42.726;23.268;2023-06-26T10:17:11;95013.53;;;26.18;65.37
22647;BME280;11490;42.726;23.268;2023-06-26T10:19:46;94987.69;;;25.58;65.30
22647;BME280;11490;42.726;23.268;2023-06-26T10:22:21;95013.75;;;25.55;67.12
22647;BME280;11490;42.726;23.268;2023-06-26T10:24:55;95010.84;;;25.60;70.24
22647;BME280;11490;42.726;23.268;2023-06-26T10:27:25;95020.38;;;25.54;69.64
22647;BME280;11490;42.726;23.268;2023-06-26T10:30:02;94971.91;;;24.98;69.44
22647;BME280;11490;42.726;23.268;2023-06-26T10:32:34;95012.75;;;25.27;67.28
22647;BME280;11490;42.726;23.268;2023-06-26T10:35:00;95007.97;;;25.24;70.02
22647;BME280;11490;42.726;23.268;2023-06-26T10:37:49;94976.28;;;25.11;71.84
22647;BME280;11490;42.726;23.268;2023-06-26T10:40:22;94993.34;;;25.08;70.03
22647;BME280;11490;42.726;23.268;2023-06-26T10:43:06;95005.69;;;25.26;69.82
22647;BME280;11490;42.726;23.268;2023-06-26T10:45:33;95011.28;;;25.09;72.34
22647;BME280;11490;42.726;23.268;2023-06-26T10:47:59;95003.72;;;25.14;71.89
22647;BME280;11490;42.726;23.268;2023-06-26T10:50:27;95013.94;;;25.17;68.67
22647;BME280;11490;42.726;23.268;2023-06-26T10:56:02;94987.00;;;24.95;73.23
22647;BME280;11490;42.726;23.268;2023-06-26T11:01:16;95005.72;;;25.05;70.89
22647;BME280;11490;42.726;23.268;2023-06-26T11:03:45;94992.41;;;25.04;73.67
22647;BME280;11490;42.726;23.268;2023-06-26T11:06:15;94986.22;;;24.95;70.45
22647;BME280;11490;42.726;23.268;2023-06-26T11:08:45;95005.06;;;25.08;69.19
22647;BME280;11490;42.726;23.268;2023-06-26T11:14:26;94988.19;;;24.85;72.10
22647;BME280;11490;42.726;23.268;2023-06-26T11:16:52;94985.00;;;24.83;72.55
22647;BME280;11490;42.726;23.268;2023-06-26T11:19:20;95000.13;;;25.02;71.50
22647;BME280;11490;42.726;23.268;2023-06-26T11:21:46;94978.94;;;24.78;68.41
22647;BME280;11490;42.726;23.268;2023-06-26T11:24:12;95000.03;;;24.89;71.11
22647;BME280;11490;42.726;23.268;2023-06-26T11:26:42;94985.22;;;24.99;70.32
22647;BME280;11490;42.726;23.268;2023-06-26T11:29:08;94989.13;;;25.10;68.25
22647;BME280;11490;42.726;23.268;2023-06-26T11:31:35;94982.75;;;25.06;69.72
22647;BME280;11490;42.726;23.268;2023-06-26T11:34:03;94969.75;;;25.24;72.25
22647;BME280;11490;42.726;23.268;2023-06-26T11:36:29;94972.50;;;25.36;71.67
22647;BME280;11490;42.726;23.268;2023-06-26T11:38:56;94982.56;;;25.56;68.53
22647;BME280;11490;42.726;23.268;2023-06-26T11:41:23;94951.31;;;25.33;71.16
22647;BME280;11490;42.726;23.268;2023-06-26T11:43:50;94966.97;;;25.57;69.43
22647;BME280;11490;42.726;23.268;2023-06-26T11:46:21;94972.44;;;25.57;68.87
22647;BME280;11490;42.726;23.268;2023-06-26T11:48:47;94949.31;;;25.42;68.72
22647;BME280;11490;42.726;23.268;2023-06-26T11:51:14;94993.75;;;25.63;69.30
22647;BME280;11490;42.726;23.268;2023-06-26T11:53:44;94961.41;;;25.53;69.18
22647;BME280;11490;42.726;23.268;2023-06-26T11:56:11;94991.78;;;25.97;69.90
22647;BME280;11490;42.726;23.268;2023-06-26T12:01:36;94970.84;;;26.25;65.61
22647;BME280;11490;42.726;23.268;2023-06-26T12:04:03;94972.00;;;26.36;67.83
22647;BME280;11490;42.726;23.268;2023-06-26T12:06:31;94960.59;;;26.22;64.89
22647;BME280;11490;42.726;23.268;2023-06-26T12:08:59;94962.75;;;26.17;68.00
22647;BME280;11490;42.726;23.268;2023-06-26T12:11:26;94953.75;;;25.92;65.34
22647;BME280;11490;42.726;23.268;2023-06-26T12:13:54;94946.91;;;26.10;66.26
22647;BME280;11490;42.726;23.268;2023-06-26T12:16:19;94956.25;;;26.09;67.02
22647;BME280;11490;42.726;23.268;2023-06-26T12:18:45;94954.66;;;26.08;67.35
22647;BME280;11490;42.726;23.268;2023-06-26T12:24:13;94939.59;;;25.65;66.37
22647;BME280;11490;42.726;23.268;2023-06-26T12:26:41;94958.16;;;25.72;68.69
22647;BME280;11490;42.726;23.268;2023-06-26T12:29:10;94953.22;;;25.53;68.12
22647;BME280;11490;42.726;23.268;2023-06-26T12:31:44;94956.84;;;25.57;70.96
22647;BME280;11490;42.726;23.268;2023-06-26T12:34:13;94959.91;;;25.56;71.14
22647;BME280;11490;42.726;23.268;2023-06-26T12:36:50;94952.88;;;25.55;71.41
22647;BME280;11490;42.726;23.268;2023-06-26T12:39:21;94960.72;;;25.56;73.18
22647;BME280;11490;42.726;23.268;2023-06-26T12:41:49;94956.50;;;25.47;70.33
22647;BME280;11490;42.726;23.268;2023-06-26T12:44:25;94963.59;;;25.27;70.63
22647;BME280;11490;42.726;23.268;2023-06-26T12:47:07;94976.84;;;25.49;72.80
22647;BME280;11490;42.726;23.268;2023-06-26T12:49:37;94952.69;;;25.27;74.49
22647;BME280;11490;42.726;23.268;2023-06-26T12:52:05;94977.19;;;25.48;73.47
22647;BME280;11490;42.726;23.268;2023-06-26T12:54:31;94978.69;;;25.45;74.54
22647;BME280;11490;42.726;23.268;2023-06-26T12:56:58;94957.88;;;25.20;74.85
22647;BME280;11490;42.726;23.268;2023-06-26T12:59:24;94947.91;;;25.24;75.43
22647;BME280;11490;42.726;23.268;2023-06-26T13:01:52;94951.56;;;25.28;75.70
22647;BME280;11490;42.726;23.268;2023-06-26T13:04:22;94966.09;;;25.32;75.45
22647;BME280;11490;42.726;23.268;2023-06-26T13:06:51;94934.97;;;25.00;72.22